Time;durP1;ratioP1;P1;durP2;ratioP2;P2;SDS_P1;SDS_P2;PMS_P1;PMS_P2;Temp;Humidity;BMP_temperature;BMP_pressure;BME280_temperature;BME280_humidity;BME280_pressure;Samples;Min_cycle;Max_cycle;Signal;HPM_P1;HPM_P2
2021/04/06 00:02:19;;;;;;;4.10;3.40;;;;;;;7.32;49.35;97371.59;1744492;79;20982;-58
2021/04/06 00:04:49;;;;;;;4.28;3.45;;;;;;;7.30;49.43;97370.98;1739055;79;21140;-57
2021/04/06 00:07:19;;;;;;;5.05;3.92;;;;;;;7.29;49.51;97378.09;1750494;80;20955;-57
2021/04/06 00:09:53;;;;;;;5.28;3.80;;;;;;;7.27;49.61;97377.98;1671471;84;21565;-56
2021/04/06 00:12:21;;;;;;;4.75;3.67;;;;;;;7.24;49.67;97381.84;1748303;80;20941;-55
2021/04/06 00:14:50;;;;;;;5.45;3.77;;;;;;;7.24;49.74;97375.23;1682034;84;21069;-57
2021/04/06 00:17:20;;;;;;;7.92;3.80;;;;;;;7.23;49.81;97371.45;1748948;80;20909;-56
2021/04/06 00:19:49;;;;;;;4.33;3.10;;;;;;;7.22;49.92;97381.73;1744350;82;21301;-54
2021/04/06 00:22:18;;;;;;;5.30;3.83;;;;;;;7.19;49.98;97376.34;1750651;80;21013;-55
2021/04/06 00:24:48;;;;;;;5.08;3.90;;;;;;;7.18;50.06;97372.05;1705105;80;21001;-57
2021/04/06 00:27:20;;;;;;;4.15;3.62;;;;;;;7.16;50.10;97371.45;1750690;80;20961;-57
2021/04/06 00:29:57;;;;;;;5.75;3.62;;;;;;;7.15;50.22;97369.80;1755134;80;21139;-56
2021/04/06 00:32:26;;;;;;;4.10;3.58;;;;;;;7.13;50.33;97373.16;1765519;79;21370;-56
2021/04/06 00:35:00;;;;;;;3.83;3.42;;;;;;;7.13;50.43;97371.02;1713216;83;21227;-54
2021/04/06 00:37:28;;;;;;;3.72;3.40;;;;;;;7.11;50.48;97366.45;1765112;80;21178;-55
2021/04/06 00:40:00;;;;;;;4.58;3.70;;;;;;;7.09;50.57;97367.16;1714887;83;21053;-56
2021/04/06 00:42:48;;;;;;;5.72;3.72;;;;;;;7.08;50.62;97370.30;1707307;83;21582;-54
2021/04/06 00:45:18;;;;;;;4.33;3.08;;;;;;;7.06;50.66;97369.69;1670084;84;21425;-55
2021/04/06 00:47:45;;;;;;;4.47;3.37;;;;;;;7.05;50.70;97373.34;1669980;84;20999;-56
2021/04/06 00:50:15;;;;;;;4.33;2.98;;;;;;;7.04;50.74;97362.44;1665418;84;21398;-56
2021/04/06 00:52:44;;;;;;;4.97;3.42;;;;;;;7.04;50.74;97365.09;1668046;84;21059;-56
2021/04/06 00:55:17;;;;;;;4.30;3.40;;;;;;;7.04;50.78;97359.01;1670065;84;21157;-55
2021/04/06 00:57:44;;;;;;;5.90;3.52;;;;;;;7.03;50.69;97362.16;1670006;84;21392;-55
2021/04/06 01:00:29;;;;;;;4.50;3.62;;;;;;;7.03;50.64;97360.83;1669889;84;21082;-55
2021/04/06 01:03:05;;;;;;;4.22;3.50;;;;;;;7.05;50.63;97357.47;1667507;84;21102;-56
2021/04/06 01:05:55;;;;;;;4.25;3.42;;;;;;;7.06;50.62;97359.62;1670004;84;21221;-56
2021/04/06 01:08:25;;;;;;;4.25;3.40;;;;;;;7.06;50.63;97359.11;1647414;86;20987;-56
2021/04/06 01:10:52;;;;;;;4.40;3.67;;;;;;;7.07;50.64;97358.08;1669743;84;21306;-57
2021/04/06 01:13:21;;;;;;;4.72;3.65;;;;;;;7.07;50.61;97357.27;1640321;86;21204;-57
2021/04/06 01:15:50;;;;;;;3.50;3.17;;;;;;;7.06;50.56;97356.97;1643448;86;21105;-55
2021/04/06 01:18:18;;;;;;;5.75;3.75;;;;;;;7.04;50.57;97355.83;1669942;84;21112;-57
2021/04/06 01:20:47;;;;;;;3.80;3.47;;;;;;;7.05;50.53;97349.55;1670050;84;21088;-57
2021/04/06 01:23:16;;;;;;;4.40;3.50;;;;;;;7.04;50.49;97350.55;1667782;84;21352;-58
2021/04/06 01:25:49;;;;;;;4.65;3.42;;;;;;;7.04;50.48;97356.36;1669965;84;21055;-56
2021/04/06 01:28:19;;;;;;;4.12;3.72;;;;;;;7.03;50.42;97356.86;1670034;84;21031;-56
2021/04/06 01:30:49;;;;;;;4.55;3.40;;;;;;;7.04;50.44;97359.01;1669897;84;21140;-57
2021/04/06 01:33:23;;;;;;;4.62;2.95;;;;;;;7.02;50.40;97354.41;1667976;84;21233;-58
2021/04/06 01:35:56;;;;;;;5.08;3.30;;;;;;;7.01;50.40;97350.97;1656088;84;22342;-55
2021/04/06 01:38:26;;;;;;;4.45;3.25;;;;;;;7.02;50.40;97345.15;1651108;84;21157;-55
2021/04/06 01:40:55;;;;;;;5.60;3.77;;;;;;;7.00;50.34;97343.22;1648572;84;21178;-54
2021/04/06 01:43:26;;;;;;;5.10;4.05;;;;;;;7.00;50.35;97348.50;1666036;84;21358;-55
2021/04/06 01:48:44;;;;;;;4.62;3.33;;;;;;;7.00;50.19;97345.86;1656325;85;21411;-56
2021/04/06 01:51:20;;;;;;;5.12;3.92;;;;;;;7.00;49.98;97348.00;1642401;85;21049;-54
2021/04/06 01:53:49;;;;;;;5.08;3.60;;;;;;;7.01;49.88;97347.00;1638742;85;21045;-56
2021/04/06 01:56:25;;;;;;;5.20;4.00;;;;;;;7.02;49.81;97342.00;1658622;85;21073;-58
2021/04/06 01:58:58;;;;;;;4.62;3.20;;;;;;;7.04;49.79;97349.75;1638451;85;21025;-56
2021/04/06 02:01:24;;;;;;;5.40;3.65;;;;;;;7.05;49.61;97346.90;1671931;85;21243;-57
2021/04/06 02:04:05;;;;;;;4.37;3.10;;;;;;;7.06;49.33;97344.58;1656241;85;21200;-56
2021/04/06 02:06:38;;;;;;;3.87;3.47;;;;;;;7.08;49.10;97343.86;1642026;85;21069;-57
2021/04/06 02:09:09;;;;;;;6.30;3.47;;;;;;;7.12;48.98;97343.75;1655273;85;21554;-56
2021/04/06 02:11:38;;;;;;;5.30;3.70;;;;;;;7.14;48.73;97336.97;1657503;85;21140;-58
2021/04/06 02:14:16;;;;;;;4.08;3.62;;;;;;;7.16;48.62;97334.92;1676513;85;21658;-56
2021/04/06 02:16:59;;;;;;;4.58;3.47;;;;;;;7.18;48.57;97335.53;1658730;85;21673;-58
2021/04/06 02:19:31;;;;;;;4.25;3.60;;;;;;;7.20;48.51;97352.83;1657321;85;21131;-56
2021/04/06 02:22:01;;;;;;;6.40;3.52;;;;;;;7.22;48.50;97362.69;1657643;85;21541;-58
2021/04/06 02:24:39;;;;;;;3.60;3.05;;;;;;;7.23;48.49;97369.63;1659585;85;21105;-57
2021/04/06 02:27:28;;;;;;;4.45;3.45;;;;;;;7.23;48.58;97375.41;1659320;85;21626;-57
2021/04/06 02:30:00;;;;;;;4.22;3.47;;;;;;;7.22;48.74;97384.38;1657294;85;21188;-57
2021/04/06 02:32:34;;;;;;;6.15;3.70;;;;;;;7.20;48.91;97400.43;1657583;85;21138;-55
2021/04/06 02:35:09;;;;;;;4.10;3.45;;;;;;;7.19;49.03;97411.22;1654738;85;21002;-57
2021/04/06 02:37:42;;;;;;;3.92;3.50;;;;;;;7.16;49.10;97416.40;1659300;85;21157;-57
2021/04/06 02:40:13;;;;;;;4.47;3.70;;;;;;;7.14;49.24;97418.94;1657368;85;21598;-58
2021/04/06 02:42:46;;;;;;;4.00;3.52;;;;;;;7.12;49.44;97423.08;1655574;85;21212;-56
2021/04/06 02:45:22;;;;;;;4.40;3.70;;;;;;;7.09;49.62;97422.68;1654968;85;21153;-55
2021/04/06 02:48:15;;;;;;;7.80;4.65;;;;;;;7.04;49.94;97421.92;1642223;85;21257;-58
2021/04/06 02:50:42;;;;;;;8.38;5.47;;;;;;;6.99;50.30;97426.20;1675488;85;20975;-55
2021/04/06 02:53:13;;;;;;;8.35;6.05;;;;;;;6.93;50.84;97428.30;1655605;86;21283;-56
2021/04/06 02:55:41;;;;;;;5.42;3.98;;;;;;;6.88;51.28;97427.58;1605841;86;21084;-55
2021/04/06 02:58:15;;;;;;;5.60;4.10;;;;;;;6.84;52.24;97436.89;1664332;85;21025;-56
2021/04/06 03:00:43;;;;;;;4.97;4.47;;;;;;;6.80;53.34;97437.78;1662264;86;20990;-56
2021/04/06 03:03:25;;;;;;;7.60;4.53;;;;;;;6.72;55.01;97437.97;1662153;86;21156;-56
2021/04/06 03:06:03;;;;;;;6.40;3.50;;;;;;;6.65;56.34;97446.34;1685159;85;21383;-55
2021/04/06 03:08:31;;;;;;;3.85;2.75;;;;;;;6.57;58.91;97439.88;1704508;83;21579;-56
2021/04/06 03:10:59;;;;;;;4.50;2.58;;;;;;;6.47;60.65;97442.56;1646735;85;21558;-56
2021/04/06 03:13:27;;;;;;;2.98;2.72;;;;;;;6.38;61.60;97457.77;1685969;83;21163;-56
2021/04/06 03:15:56;;;;;;;3.00;2.70;;;;;;;6.30;63.09;97454.44;1677625;85;21212;-54
2021/04/06 03:18:37;;;;;;;2.77;2.27;;;;;;;6.19;63.99;97456.60;1712188;83;21267;-55
2021/04/06 03:21:07;;;;;;;2.65;2.40;;;;;;;6.13;64.92;97467.09;1652302;85;21629;-56
2021/04/06 03:23:35;;;;;;;2.60;2.37;;;;;;;6.04;65.47;97467.75;1711954;83;21212;-55
2021/04/06 03:26:05;;;;;;;2.30;2.05;;;;;;;5.99;65.97;97468.83;1685005;85;21164;-55
2021/04/06 03:28:35;;;;;;;2.65;2.27;;;;;;;5.93;66.81;97462.98;1702867;83;21607;-57
2021/04/06 03:31:14;;;;;;;1.95;1.65;;;;;;;5.88;67.25;97466.69;1659186;85;21589;-56
2021/04/06 03:33:47;;;;;;;3.65;2.00;;;;;;;5.83;67.64;97463.77;1695185;83;21176;-58
2021/04/06 03:36:28;;;;;;;2.62;1.90;;;;;;;5.76;68.22;97473.42;1685035;85;21010;-56
2021/04/06 03:39:01;;;;;;;2.67;2.20;;;;;;;5.69;68.62;97477.83;1711929;82;21156;-56
2021/04/06 03:41:29;;;;;;;3.42;2.40;;;;;;;5.65;69.05;97484.50;1708569;83;21151;-56
2021/04/06 03:44:08;;;;;;;4.45;2.80;;;;;;;5.64;68.95;97489.45;1632251;85;21285;-57
2021/04/06 03:46:38;;;;;;;5.03;3.20;;;;;;;5.61;67.91;97498.55;1616728;86;21676;-55
2021/04/06 03:49:23;;;;;;;4.53;3.90;;;;;;;5.57;66.96;97513.12;1622097;86;21669;-54
2021/04/06 03:52:07;;;;;;;5.47;3.50;;;;;;;5.56;66.33;97526.48;1677063;84;21084;-55
2021/04/06 03:54:47;;;;;;;5.37;3.83;;;;;;;5.52;65.88;97526.55;1626584;86;21208;-58
2021/04/06 04:00:08;;;;;;;2.47;2.25;;;;;;;5.42;64.88;97536.05;1645657;85;21188;-58
2021/04/06 04:02:36;;;;;;;1.72;1.55;;;;;;;5.35;64.35;97540.44;1628532;86;21215;-56
2021/04/06 04:05:05;;;;;;;2.17;1.50;;;;;;;5.28;64.16;97537.41;1615806;87;20969;-56
2021/04/06 04:07:36;;;;;;;1.85;1.42;;;;;;;5.22;64.15;97547.36;1618197;86;21097;-56
2021/04/06 04:10:07;;;;;;;2.45;2.08;;;;;;;5.15;64.20;97544.66;1610303;87;21229;-55
2021/04/06 04:12:35;;;;;;;4.30;3.00;;;;;;;5.12;64.26;97549.45;1639132;86;21247;-57
2021/04/06 04:15:06;;;;;;;3.60;2.50;;;;;;;5.09;64.32;97554.59;1690172;84;21076;-58
2021/04/06 04:17:34;;;;;;;1.32;1.22;;;;;;;5.09;64.44;97560.36;1689717;83;21702;-54
2021/04/06 04:20:09;;;;;;;1.07;1.00;;;;;;;5.04;64.53;97558.77;1680021;85;21204;-57
2021/04/06 04:22:36;;;;;;;2.33;0.72;;;;;;;5.03;64.50;97569.84;1685133;84;22267;-55
2021/04/06 04:25:06;;;;;;;5.53;1.62;;;;;;;5.00;64.53;97584.69;1683876;84;20955;-56
2021/04/06 04:27:33;;;;;;;2.42;1.67;;;;;;;5.00;64.53;97584.16;1664352;83;20979;-55
2021/04/06 04:30:01;;;;;;;2.35;1.82;;;;;;;4.98;64.55;97584.85;1675204;85;21156;-56
2021/04/06 04:32:30;;;;;;;1.00;0.93;;;;;;;4.94;64.73;97587.55;1686414;84;21160;-56
2021/04/06 04:34:58;;;;;;;5.05;1.82;;;;;;;4.93;64.78;97594.30;1691266;84;21401;-56
2021/04/06 04:37:26;;;;;;;0.90;0.90;;;;;;;4.87;64.95;97602.45;1689104;85;21140;-58
2021/04/06 04:39:55;;;;;;;1.05;0.90;;;;;;;4.84;65.03;97612.02;1690277;83;21033;-56
2021/04/06 04:42:24;;;;;;;0.80;0.75;;;;;;;4.84;65.14;97619.92;1688306;84;21184;-57
2021/04/06 04:44:52;;;;;;;1.52;0.88;;;;;;;4.85;65.42;97622.03;1683772;84;21199;-56
2021/04/06 04:47:19;;;;;;;1.95;0.93;;;;;;;4.83;65.72;97636.72;1689559;85;21381;-55
2021/04/06 04:49:47;;;;;;;1.75;0.85;;;;;;;4.79;65.93;97638.08;1694162;83;21690;-58
2021/04/06 04:52:14;;;;;;;0.80;0.80;;;;;;;4.81;66.12;97642.67;1692252;84;21131;-56
2021/04/06 04:54:43;;;;;;;1.05;0.90;;;;;;;4.79;66.47;97635.94;1685414;84;21104;-57
2021/04/06 04:57:11;;;;;;;0.95;0.88;;;;;;;4.78;66.66;97629.84;1691052;84;21105;-57
2021/04/06 04:59:39;;;;;;;1.17;0.98;;;;;;;4.82;66.83;97629.80;1700141;84;21381;-55
2021/04/06 05:02:06;;;;;;;1.60;0.85;;;;;;;4.83;67.10;97633.26;1692801;84;21101;-56
2021/04/06 05:04:34;;;;;;;1.65;0.93;;;;;;;4.82;67.46;97637.70;1694171;84;21291;-55
2021/04/06 05:07:02;;;;;;;2.35;1.30;;;;;;;4.84;67.74;97638.86;1692894;84;21551;-55
2021/04/06 05:09:29;;;;;;;1.80;1.20;;;;;;;4.84;68.04;97642.81;1700151;84;21132;-58
2021/04/06 05:11:59;;;;;;;4.92;1.60;;;;;;;4.85;68.08;97652.34;1684401;84;21049;-58
2021/04/06 05:14:26;;;;;;;10.13;2.10;;;;;;;4.86;68.09;97661.39;1694452;84;21093;-57
2021/04/06 05:16:53;;;;;;;3.10;1.30;;;;;;;4.81;68.03;97667.70;1700059;84;20973;-54
2021/04/06 05:19:22;;;;;;;1.45;0.88;;;;;;;4.77;67.85;97679.57;1692797;84;21088;-55
2021/04/06 05:21:49;;;;;;;2.60;1.35;;;;;;;4.74;67.78;97686.53;1700135;83;21160;-56
2021/04/06 05:24:17;;;;;;;1.65;0.98;;;;;;;4.71;67.73;97695.28;1692827;84;21442;-55
2021/04/06 05:26:45;;;;;;;3.05;1.55;;;;;;;4.68;67.58;97698.26;1700101;84;21195;-56
2021/04/06 05:29:12;;;;;;;2.72;1.30;;;;;;;4.64;67.65;97703.05;1692925;84;20962;-55
2021/04/06 05:31:41;;;;;;;1.07;0.98;;;;;;;4.66;67.59;97701.58;1700083;83;21629;-55
2021/04/06 05:34:08;;;;;;;1.17;0.90;;;;;;;4.67;67.36;97709.29;1692886;84;21184;-55
2021/04/06 05:36:37;;;;;;;1.62;1.12;;;;;;;4.65;67.26;97719.68;1700101;83;21399;-55
2021/04/06 05:39:05;;;;;;;1.02;0.85;;;;;;;4.62;67.21;97728.75;1699964;84;21646;-58
2021/04/06 05:41:34;;;;;;;2.80;1.30;;;;;;;4.60;67.27;97733.88;1692800;84;21562;-56
2021/04/06 05:44:04;;;;;;;9.65;1.90;;;;;;;4.62;67.43;97743.73;1700022;83;21167;-56
2021/04/06 05:46:35;;;;;;;2.50;1.70;;;;;;;4.62;67.30;97743.73;1700081;84;21522;-56
2021/04/06 05:49:09;;;;;;;1.72;1.17;;;;;;;4.60;67.15;97750.99;1700082;83;22421;-55
2021/04/06 05:51:41;;;;;;;3.20;1.47;;;;;;;4.60;66.98;97755.77;1680876;84;21143;-56
2021/04/06 05:54:15;;;;;;;3.25;1.50;;;;;;;4.60;66.78;97761.03;1700149;83;21075;-58
2021/04/06 05:56:42;;;;;;;3.15;1.37;;;;;;;4.59;66.70;97762.02;1700036;84;21171;-55
2021/04/06 05:59:10;;;;;;;2.70;1.45;;;;;;;4.58;66.78;97755.63;1692850;84;21061;-57
2021/04/06 06:01:43;;;;;;;6.47;1.80;;;;;;;4.52;67.11;97762.40;1700078;84;21222;-54
2021/04/06 06:04:15;;;;;;;2.85;1.50;;;;;;;4.49;67.69;97767.18;1700112;83;21108;-57
2021/04/06 06:06:45;;;;;;;1.82;1.57;;;;;;;4.45;68.52;97760.63;1662952;84;21179;-57
2021/04/06 06:09:14;;;;;;;2.08;1.80;;;;;;;4.41;69.72;97769.89;1661599;85;21068;-58
2021/04/06 06:12:00;;;;;;;2.15;1.57;;;;;;;4.36;70.41;97771.70;1641685;84;21071;-56
2021/04/06 06:14:41;;;;;;;2.20;1.75;;;;;;;4.33;71.17;97781.25;1692909;84;22144;-56
2021/04/06 06:17:21;;;;;;;1.80;1.70;;;;;;;4.34;71.90;97786.85;1699842;84;21132;-58
2021/04/06 06:19:54;;;;;;;2.35;1.92;;;;;;;4.38;72.36;97795.55;1659021;84;21148;-57
2021/04/06 06:22:25;;;;;;;4.05;1.92;;;;;;;4.44;72.90;97797.16;1660241;84;21153;-55
2021/04/06 06:25:11;;;;;;;2.33;1.90;;;;;;;4.49;73.14;97796.97;1655264;85;21523;-58
2021/04/06 06:27:45;;;;;;;3.02;2.30;;;;;;;4.49;72.44;97803.56;1628492;86;25308;-58
2021/04/06 06:30:34;;;;;;;4.22;2.33;;;;;;;4.38;72.00;97807.88;1625576;86;21094;-58
2021/04/06 06:33:26;;;;;;;2.95;2.12;;;;;;;4.26;72.38;97811.41;1682498;84;21091;-56
2021/04/06 06:36:07;;;;;;;3.72;2.83;;;;;;;4.14;72.05;97810.63;1617729;86;21097;-55
2021/04/06 06:38:39;;;;;;;2.58;1.87;;;;;;;4.10;72.20;97814.09;1616355;86;21717;-55
2021/04/06 06:41:16;;;;;;;3.35;2.50;;;;;;;4.11;72.55;97820.18;1696539;84;21373;-56
2021/04/06 06:43:50;;;;;;;4.17;2.85;;;;;;;4.12;72.73;97827.89;1690303;84;21068;-59
2021/04/06 06:46:29;;;;;;;4.60;3.05;;;;;;;4.11;72.93;97830.70;1691391;84;21111;-56
2021/04/06 06:49:03;;;;;;;4.08;2.90;;;;;;;4.13;72.90;97836.13;1690463;84;21168;-55
2021/04/06 06:51:39;;;;;;;5.35;2.72;;;;;;;4.05;72.73;97836.64;1717014;83;21593;-55
2021/04/06 06:54:06;;;;;;;2.80;2.20;;;;;;;4.02;72.91;97844.37;1730231;83;22298;-55
2021/04/06 06:56:40;;;;;;;3.58;2.40;;;;;;;4.03;72.58;97844.71;1715267;83;21180;-56
2021/04/06 06:59:08;;;;;;;3.85;2.55;;;;;;;4.03;71.76;97843.89;1712664;83;21135;-56
2021/04/06 07:01:38;;;;;;;5.42;2.85;;;;;;;3.97;70.07;97849.81;1716656;83;21028;-56
2021/04/06 07:04:13;;;;;;;4.25;2.40;;;;;;;3.90;69.26;97850.16;1724221;82;21480;-56
2021/04/06 07:06:43;;;;;;;4.37;2.20;;;;;;;3.83;67.45;97843.45;1721491;83;22234;-56
2021/04/06 07:09:30;;;;;;;2.92;1.72;;;;;;;3.78;65.48;97851.52;1725158;83;21228;-58
2021/04/06 07:12:03;;;;;;;3.70;1.98;;;;;;;3.74;64.32;97853.64;1718755;83;21033;-57
2021/04/06 07:14:32;;;;;;;3.52;1.98;;;;;;;3.68;63.86;97853.81;1726597;83;21040;-59
2021/04/06 07:17:06;;;;;;;2.47;2.10;;;;;;;3.64;64.46;97856.45;1721427;83;21120;-57
2021/04/06 07:19:38;;;;;;;3.50;2.52;;;;;;;3.64;64.65;97861.72;1703395;83;21446;-58
2021/04/06 07:22:05;;;;;;;4.42;1.67;;;;;;;3.61;65.05;97865.16;1717953;83;21203;-56
2021/04/06 07:24:38;;;;;;;2.83;1.65;;;;;;;3.60;65.14;97870.91;1723661;82;21040;-58
2021/04/06 07:27:10;;;;;;;2.37;1.65;;;;;;;3.55;65.63;97869.75;1698509;84;21131;-57
2021/04/06 07:29:38;;;;;;;3.95;1.70;;;;;;;3.54;66.21;97876.84;1725851;82;21167;-57
2021/04/06 07:32:13;;;;;;;4.60;2.05;;;;;;;3.54;66.15;97886.53;1721250;83;21347;-58
2021/04/06 07:34:42;;;;;;;2.80;1.47;;;;;;;3.48;67.08;97883.23;1728366;83;21594;-58
2021/04/06 07:37:10;;;;;;;2.67;1.50;;;;;;;3.35;68.00;97891.63;1719646;83;21144;-57
2021/04/06 07:39:38;;;;;;;2.05;1.60;;;;;;;3.28;68.73;97892.44;1726329;83;21159;-57
2021/04/06 07:42:09;;;;;;;4.17;2.58;;;;;;;3.22;69.58;97896.53;1713428;83;21227;-58
2021/04/06 07:44:37;;;;;;;4.33;2.00;;;;;;;3.20;70.26;97898.51;1727576;83;21229;-57
2021/04/06 07:47:04;;;;;;;4.35;2.42;;;;;;;3.17;70.97;97902.77;1718390;83;21256;-56
2021/04/06 07:49:34;;;;;;;2.00;1.72;;;;;;;3.20;71.69;97905.08;1728733;83;21575;-56
2021/04/06 07:52:16;;;;;;;2.00;1.72;;;;;;;3.22;71.80;97915.41;1684229;83;21160;-57
2021/04/06 07:54:48;;;;;;;2.42;2.02;;;;;;;3.18;71.98;97914.11;1707774;83;21558;-58
2021/04/06 07:57:15;;;;;;;5.12;3.45;;;;;;;3.20;72.65;97921.33;1678036;84;21380;-55
2021/04/06 07:59:49;;;;;;;7.17;4.55;;;;;;;3.17;73.44;97921.16;1688878;83;21105;-54
2021/04/06 08:02:21;;;;;;;5.92;4.20;;;;;;;3.13;74.70;97929.02;1677858;84;21254;-57
2021/04/06 08:04:59;;;;;;;5.60;3.55;;;;;;;3.15;74.96;97932.82;1710037;83;21172;-57
2021/04/06 08:07:32;;;;;;;6.33;3.12;;;;;;;3.26;75.38;97935.95;1682320;85;21176;-57
2021/04/06 08:10:11;;;;;;;7.92;4.78;;;;;;;3.39;74.75;97942.87;1711224;83;21441;-57
2021/04/06 08:12:39;;;;;;;9.45;6.55;;;;;;;3.41;74.18;97943.55;1680139;84;21180;-55
2021/04/06 08:15:12;;;;;;;10.82;6.70;;;;;;;3.35;74.08;97947.30;1713610;83;21274;-54
2021/04/06 08:17:52;;;;;;;8.38;5.60;;;;;;;3.35;74.61;97948.63;1682741;84;20978;-57
2021/04/06 08:20:37;;;;;;;7.00;5.80;;;;;;;3.24;74.67;97948.92;1711471;83;21228;-57
2021/04/06 08:23:18;;;;;;;7.40;5.33;;;;;;;3.11;74.62;97945.45;1707799;83;22257;-56
2021/04/06 08:25:50;;;;;;;7.05;5.28;;;;;;;3.00;74.97;97947.05;1680486;84;21540;-56
2021/04/06 08:28:27;;;;;;;7.78;5.62;;;;;;;2.94;75.30;97952.96;1706647;83;21065;-57
2021/04/06 08:31:19;;;;;;;9.35;6.33;;;;;;;2.85;75.74;97954.73;1682819;84;21160;-58
2021/04/06 08:33:47;;;;;;;9.35;5.65;;;;;;;2.79;76.22;97954.04;1710802;83;21156;-56
2021/04/06 08:36:27;;;;;;;9.78;6.33;;;;;;;2.73;76.90;97957.80;1684112;84;21213;-55
2021/04/06 08:38:57;;;;;;;10.08;6.10;;;;;;;2.74;77.06;97956.31;1704038;83;21629;-56
2021/04/06 08:41:32;;;;;;;8.55;7.05;;;;;;;2.79;77.75;97958.49;1680586;85;21153;-59
2021/04/06 08:44:04;;;;;;;11.57;7.75;;;;;;;2.82;78.14;97960.77;1688744;83;21164;-59
2021/04/06 08:49:25;;;;;;;6.30;4.30;;;;;;;3.01;78.67;97963.16;1824413;77;28492;-56
2021/04/06 08:52:00;;;;;;;4.60;3.67;;;;;;;3.02;78.77;97964.30;1843237;77;20973;-55
2021/04/06 08:54:33;;;;;;;5.25;3.77;;;;;;;3.04;79.00;97964.98;1785788;80;22037;-56
2021/04/06 08:57:06;;;;;;;5.78;4.08;;;;;;;3.03;78.79;97959.38;1748350;80;21641;-59
2021/04/06 08:59:42;;;;;;;6.33;4.53;;;;;;;2.94;78.37;97958.22;1746471;81;20938;-57
2021/04/06 09:02:16;;;;;;;9.20;5.17;;;;;;;2.85;78.25;97964.41;1772125;80;21096;-56
2021/04/06 09:04:49;;;;;;;10.13;6.20;;;;;;;2.73;78.26;97964.37;1776901;80;21049;-58
2021/04/06 09:07:24;;;;;;;11.50;7.25;;;;;;;2.68;78.73;97957.45;1801458;78;22340;-57
2021/04/06 09:10:11;;;;;;;12.55;8.15;;;;;;;2.70;78.96;97951.55;1745763;80;21003;-58
2021/04/06 09:12:42;;;;;;;14.28;8.60;;;;;;;2.73;79.32;97955.17;1718972;80;21631;-57
2021/04/06 09:15:12;;;;;;;11.70;6.33;;;;;;;2.69;79.35;97956.45;1736528;80;21037;-58
2021/04/06 09:17:40;;;;;;;11.08;7.22;;;;;;;2.68;79.62;97958.28;1719755;82;21136;-57
2021/04/06 09:20:17;;;;;;;10.98;6.85;;;;;;;2.69;79.60;97953.34;1776433;80;21360;-55
2021/04/06 09:22:49;;;;;;;11.18;7.75;;;;;;;2.64;79.94;97959.56;1759757;80;21175;-56
2021/04/06 09:25:23;;;;;;;10.23;6.95;;;;;;;2.66;80.91;97958.91;1771190;80;21119;-56
2021/04/06 09:27:58;;;;;;;;;;;;;;;2.82;81.45;97962.09;1783524;80;21177;-56
2021/04/06 09:30:33;;;;;;;6.15;4.10;;;;;;;3.00;81.36;97961.02;1765197;80;20225;-58
2021/04/06 09:33:16;;;;;;;4.70;3.42;;;;;;;3.15;80.88;97951.22;1772902;78;21212;-56
2021/04/06 09:35:51;;;;;;;4.78;3.70;;;;;;;3.21;80.11;97955.84;1747141;82;21578;-56
2021/04/06 09:38:23;;;;;;;4.42;3.60;;;;;;;3.31;80.29;97952.05;1773690;80;28248;-56
2021/04/06 09:40:51;;;;;;;6.25;4.80;;;;;;;3.48;80.34;97956.38;1796512;78;21136;-55
2021/04/06 09:43:18;;;;;;;4.67;3.72;;;;;;;3.60;80.08;97955.55;1782587;80;21121;-56
2021/04/06 09:45:48;;;;;;;4.35;3.35;;;;;;;3.70;79.80;97954.41;1756417;80;21402;-55
2021/04/06 09:48:16;;;;;;;3.30;2.75;;;;;;;3.81;79.09;97957.20;1788425;80;21665;-56
2021/04/06 09:51:02;;;;;;;3.85;2.80;;;;;;;3.88;78.58;97960.02;1837289;76;21052;-57
2021/04/06 09:53:29;;;;;;;3.20;2.67;;;;;;;3.98;78.20;97958.03;1785793;80;21202;-57
2021/04/06 09:55:57;;;;;;;3.55;2.85;;;;;;;4.14;77.81;97956.22;1824263;78;21064;-57
2021/04/06 09:58:25;;;;;;;5.17;3.47;;;;;;;4.22;77.13;97956.70;1837084;76;21368;-58
2021/04/06 10:00:52;;;;;;;5.55;3.35;;;;;;;4.27;76.90;97953.90;1839862;77;20973;-56
2021/04/06 10:03:26;;;;;;;3.72;2.98;;;;;;;4.38;76.77;97954.53;1791179;80;21003;-56
2021/04/06 10:06:06;;;;;;;3.02;2.10;;;;;;;4.43;76.22;97946.45;1751379;82;20986;-56
2021/04/06 10:08:34;;;;;;;3.35;2.20;;;;;;;4.48;75.58;97950.72;1783366;80;21128;-56
2021/04/06 10:11:03;;;;;;;3.35;2.47;;;;;;;4.45;74.48;97939.20;1785492;80;21420;-57
2021/04/06 10:13:35;;;;;;;4.80;2.60;;;;;;;4.42;74.25;97936.08;1779946;80;21172;-58
2021/04/06 10:16:06;;;;;;;5.22;2.80;;;;;;;4.43;74.51;97936.41;1823833;78;21507;-58
2021/04/06 10:18:45;;;;;;;5.08;3.02;;;;;;;4.45;74.80;97933.11;1818593;77;20913;-57
2021/04/06 10:21:22;;;;;;;8.15;3.80;;;;;;;4.55;74.33;97934.56;1818083;78;21143;-56
2021/04/06 10:23:52;;;;;;;7.35;3.75;;;;;;;4.67;74.58;97936.31;1842797;77;21326;-57
2021/04/06 10:26:23;;;;;;;4.58;3.52;;;;;;;4.84;74.72;97934.78;1790178;78;21194;-57
2021/04/06 10:29:06;;;;;;;5.10;3.37;;;;;;;5.05;74.74;97930.73;1838288;77;21608;-55
2021/04/06 10:31:51;;;;;;;3.90;3.47;;;;;;;5.24;73.21;97935.05;1756126;80;21190;-59
2021/04/06 10:34:19;;;;;;;3.75;3.30;;;;;;;5.35;72.38;97929.39;1849087;77;20992;-57
2021/04/06 10:37:04;;;;;;;5.10;3.70;;;;;;;5.51;72.75;97929.28;1782033;80;20995;-58
2021/04/06 10:39:38;;;;;;;4.62;4.10;;;;;;;5.70;72.30;97923.21;1769792;80;21223;-59
2021/04/06 10:42:10;;;;;;;5.60;3.75;;;;;;;5.84;71.55;97924.56;1756580;81;21570;-56
2021/04/06 10:44:38;;;;;;;11.28;4.50;;;;;;;5.93;70.23;97926.19;1784635;80;20902;-56
2021/04/06 10:47:05;;;;;;;7.25;4.47;;;;;;;5.96;69.60;97925.83;1845017;77;21048;-58
2021/04/06 10:49:34;;;;;;;7.33;4.12;;;;;;;6.00;69.05;97927.10;1779200;80;21211;-55
2021/04/06 10:52:10;;;;;;;10.50;4.70;;;;;;;5.96;68.42;97923.19;1824484;77;21163;-57
2021/04/06 10:54:36;;;;;;;5.42;4.42;;;;;;;5.91;69.05;97921.59;1799408;77;21147;-56
2021/04/06 10:57:06;;;;;;;7.85;5.37;;;;;;;5.95;69.52;97918.90;1833339;77;21056;-56
2021/04/06 10:59:39;;;;;;;7.08;4.95;;;;;;;5.88;68.47;97921.11;1817843;77;21072;-59
2021/04/06 11:02:07;;;;;;;6.37;4.85;;;;;;;5.71;68.31;97919.59;1766594;80;21432;-57
2021/04/06 11:04:40;;;;;;;6.72;4.72;;;;;;;5.64;69.13;97919.45;1749821;80;21697;-59
2021/04/06 11:07:09;;;;;;;8.90;5.67;;;;;;;5.59;69.39;97916.53;1832410;77;21131;-58
2021/04/06 11:09:43;;;;;;;7.83;5.35;;;;;;;5.55;69.90;97914.73;1774820;80;21185;-58
2021/04/06 11:12:14;;;;;;;7.22;5.05;;;;;;;5.56;69.40;97914.24;1834200;77;21188;-56
2021/04/06 11:14:43;;;;;;;5.55;4.67;;;;;;;5.44;68.46;97909.06;1770239;80;21195;-57
2021/04/06 11:17:11;;;;;;;5.85;4.22;;;;;;;5.34;68.47;97904.03;1828287;77;21053;-59
2021/04/06 11:19:41;;;;;;;17.32;11.12;;;;;;;5.34;69.21;97911.12;1818320;77;21091;-58
2021/04/06 11:22:16;;;;;;;9.50;7.08;;;;;;;5.39;69.22;97903.50;1777305;80;21144;-56
2021/04/06 11:24:47;;;;;;;3.85;3.40;;;;;;;5.36;69.25;97899.40;1835736;77;21546;-57
2021/04/06 11:27:17;;;;;;;3.95;2.45;;;;;;;5.37;68.83;97897.06;1825384;77;21592;-54
2021/04/06 11:29:44;;;;;;;3.60;3.00;;;;;;;5.33;68.85;97899.74;1768413;80;21074;-57
2021/04/06 11:32:15;;;;;;;5.67;3.85;;;;;;;5.29;69.06;97893.16;1737762;80;20989;-57
2021/04/06 11:34:42;;;;;;;5.83;4.60;;;;;;;5.18;69.27;97892.76;1815713;77;21144;-57
2021/04/06 11:37:10;;;;;;;4.17;3.45;;;;;;;5.02;69.75;97900.27;1807354;78;21170;-57
2021/04/06 11:39:42;;;;;;;3.75;3.05;;;;;;;4.97;70.29;97896.02;1802162;77;21492;-57
2021/04/06 11:42:11;;;;;;;4.65;3.40;;;;;;;4.92;70.63;97902.30;1728125;82;21168;-57
2021/04/06 11:44:40;;;;;;;3.47;3.05;;;;;;;4.90;71.43;97903.77;1762832;80;21383;-57
2021/04/06 11:47:08;;;;;;;4.53;2.75;;;;;;;4.92;72.27;97892.59;1798324;79;21107;-60
2021/04/06 11:49:36;;;;;;;2.87;2.60;;;;;;;4.88;72.58;97883.37;1797427;78;21131;-57
2021/04/06 11:52:04;;;;;;;2.92;2.55;;;;;;;4.89;72.67;97879.75;1802327;79;21359;-57
2021/04/06 11:54:32;;;;;;;3.10;2.80;;;;;;;4.97;73.07;97874.93;1802314;78;21149;-58
2021/04/06 11:57:02;;;;;;;5.03;3.22;;;;;;;5.06;72.67;97871.23;1762177;80;21104;-57
2021/04/06 11:59:30;;;;;;;3.00;2.67;;;;;;;5.12;72.10;97863.96;1759357;80;21163;-57
2021/04/06 12:01:57;;;;;;;4.15;3.67;;;;;;;5.12;71.90;97857.86;1808486;79;21112;-57
2021/04/06 12:04:26;;;;;;;4.58;3.15;;;;;;;5.06;71.93;97860.69;1813550;79;21309;-57
2021/04/06 12:06:55;;;;;;;5.47;3.60;;;;;;;5.10;72.18;97855.91;1813404;79;21171;-55
2021/04/06 12:09:23;;;;;;;3.95;3.55;;;;;;;5.17;72.34;97845.80;1807051;79;21237;-57
2021/04/06 12:11:51;;;;;;;3.98;3.62;;;;;;;5.21;71.65;97842.33;1785930;79;21139;-56
2021/04/06 12:14:19;;;;;;;3.65;3.33;;;;;;;5.20;71.56;97848.58;1801404;79;21179;-58